Time;durP1;ratioP1;P1;durP2;ratioP2;P2;SDS_P1;SDS_P2;PMS_P1;PMS_P2;Temp;Humidity;BMP_temperature;BMP_pressure;BME280_temperature;BME280_humidity;BME280_pressure;Samples;Min_cycle;Max_cycle;Signal;HPM_P1;HPM_P2
2022/12/09 00:00:25;;;;;;;20.70;12.07;;;2.70;99.90;;;;;;4999366;28;20120;-34
2022/12/09 00:02:51;;;;;;;23.25;13.63;;;2.70;99.90;;;;;;5027758;28;20069;-34
2022/12/09 00:05:17;;;;;;;19.17;13.52;;;2.70;99.90;;;;;;5022668;28;20042;-34
2022/12/09 00:07:43;;;;;;;21.83;13.88;;;2.70;99.90;;;;;;4999670;28;20565;-35
2022/12/09 00:10:09;;;;;;;25.23;14.82;;;2.70;99.90;;;;;;5006709;28;20077;-34
2022/12/09 00:12:35;;;;;;;23.30;14.10;;;2.70;99.90;;;;;;5012924;28;20046;-34
2022/12/09 00:15:01;;;;;;;24.25;15.27;;;2.70;99.90;;;;;;5022308;28;20065;-34
2022/12/09 00:17:26;;;;;;;23.05;14.05;;;2.70;99.90;;;;;;5013752;28;20034;-35
2022/12/09 00:19:52;;;;;;;26.13;14.23;;;2.70;99.90;;;;;;5021621;28;20041;-34
2022/12/09 00:22:18;;;;;;;22.17;14.07;;;2.70;99.90;;;;;;5000739;28;20049;-35
2022/12/09 00:24:44;;;;;;;24.98;15.00;;;2.70;99.90;;;;;;5010670;28;20045;-34
2022/12/09 00:27:10;;;;;;;23.77;13.50;;;2.70;99.90;;;;;;5031970;28;20139;-35
2022/12/09 00:29:35;;;;;;;26.30;16.00;;;2.70;99.90;;;;;;5025670;28;20038;-34
2022/12/09 00:32:02;;;;;;;24.25;15.15;;;2.60;99.90;;;;;;5004033;28;20038;-35
2022/12/09 00:34:28;;;;;;;20.65;13.55;;;2.70;99.90;;;;;;5001469;28;20038;-34
2022/12/09 00:36:53;;;;;;;21.98;12.98;;;2.60;99.90;;;;;;5007416;28;20042;-34
2022/12/09 00:39:22;;;;;;;18.45;12.85;;;2.60;99.90;;;;;;5015402;28;20048;-34
2022/12/09 00:41:50;;;;;;;21.75;13.77;;;2.70;99.90;;;;;;5026708;28;20046;-34
2022/12/09 00:44:16;;;;;;;22.50;14.07;;;2.60;99.90;;;;;;5024210;28;20045;-35
2022/12/09 00:46:42;;;;;;;20.83;13.18;;;2.60;99.90;;;;;;5027982;28;20510;-35
2022/12/09 00:49:10;;;;;;;23.50;13.13;;;2.60;99.90;;;;;;5025200;28;20038;-35
2022/12/09 00:51:36;;;;;;;24.35;13.55;;;2.60;99.90;;;;;;5011083;28;20042;-34
2022/12/09 00:54:02;;;;;;;22.38;13.18;;;2.60;99.90;;;;;;5020093;28;20399;-34
2022/12/09 00:56:29;;;;;;;22.98;13.20;;;2.60;99.90;;;;;;5029861;28;20058;-34
2022/12/09 00:58:56;;;;;;;20.60;12.77;;;2.50;99.90;;;;;;5026625;28;20042;-34
2022/12/09 01:01:22;;;;;;;21.60;13.23;;;2.50;99.90;;;;;;5020628;28;20239;-35
2022/12/09 01:03:48;;;;;;;20.05;13.05;;;2.50;99.90;;;;;;5025415;28;20487;-34
2022/12/09 01:06:17;;;;;;;23.40;13.18;;;2.50;99.90;;;;;;5022988;28;20034;-34
2022/12/09 01:08:43;;;;;;;22.95;13.85;;;2.40;99.90;;;;;;5025256;28;20077;-34
2022/12/09 01:11:19;;;;;;;21.00;13.30;;;2.40;99.90;;;;;;5026808;28;20509;-34
2022/12/09 01:13:46;;;;;;;19.67;12.65;;;2.40;99.90;;;;;;5026418;28;20400;-35
2022/12/09 01:16:18;;;;;;;21.38;12.80;;;2.30;99.90;;;;;;5027569;28;20061;-35
2022/12/09 01:18:45;;;;;;;25.00;13.35;;;2.30;99.90;;;;;;5007999;28;20102;-35
2022/12/09 01:21:12;;;;;;;23.75;13.10;;;2.30;99.90;;;;;;5015563;28;20038;-34
2022/12/09 01:23:38;;;;;;;20.50;12.57;;;2.20;99.90;;;;;;4985350;28;20044;-34
2022/12/09 01:26:05;;;;;;;21.23;12.98;;;2.20;99.90;;;;;;5020550;28;20125;-34
2022/12/09 01:28:36;;;;;;;20.88;12.63;;;2.20;99.90;;;;;;4990755;28;20103;-35
2022/12/09 01:31:05;;;;;;;19.15;12.48;;;2.10;99.90;;;;;;5011234;28;20034;-35
2022/12/09 01:33:31;;;;;;;24.27;12.55;;;2.10;99.90;;;;;;5019039;28;20403;-35
2022/12/09 01:35:57;;;;;;;19.48;11.75;;;2.00;99.90;;;;;;5014088;28;20096;-35
2022/12/09 01:38:23;;;;;;;20.70;11.32;;;1.90;99.90;;;;;;5028779;28;20065;-35
2022/12/09 01:40:49;;;;;;;20.40;12.98;;;1.90;99.90;;;;;;5022336;28;20038;-35
2022/12/09 01:43:17;;;;;;;19.90;12.65;;;1.80;99.90;;;;;;5012325;28;20498;-35
2022/12/09 01:45:44;;;;;;;20.73;12.48;;;1.70;99.90;;;;;;5014305;28;20042;-35
2022/12/09 01:48:15;;;;;;;23.17;12.77;;;1.70;99.90;;;;;;5023631;28;20156;-35
2022/12/09 01:50:55;;;;;;;21.80;12.85;;;1.70;99.90;;;;;;5005242;28;20037;-35
2022/12/09 01:53:24;;;;;;;21.48;12.88;;;1.70;99.90;;;;;;5037432;28;20038;-35
2022/12/09 01:55:56;;;;;;;22.25;13.60;;;1.70;99.90;;;;;;5011099;28;20074;-35
2022/12/09 01:58:22;;;;;;;20.27;13.15;;;1.70;99.90;;;;;;5018015;28;20418;-35
2022/12/09 02:00:48;;;;;;;21.45;12.68;;;1.70;99.90;;;;;;5020664;28;20081;-35
2022/12/09 02:03:14;;;;;;;19.92;12.95;;;1.60;99.90;;;;;;5020935;28;20057;-35
2022/12/09 02:05:41;;;;;;;20.63;12.52;;;1.70;99.90;;;;;;5018534;28;20563;-35
2022/12/09 02:08:16;;;;;;;21.10;12.05;;;1.70;99.90;;;;;;5013827;28;20037;-35
2022/12/09 02:11:04;;;;;;;22.42;12.98;;;1.70;99.90;;;;;;5017957;28;20034;-35
2022/12/09 02:13:51;;;;;;;20.02;12.10;;;1.70;99.90;;;;;;5029624;28;20034;-35
2022/12/09 02:16:25;;;;;;;22.55;13.60;;;1.60;99.90;;;;;;5024693;28;20507;-35
2022/12/09 02:19:25;;;;;;;21.52;12.60;;;1.60;99.90;;;;;;5005810;28;20034;-35
2022/12/09 02:21:59;;;;;;;22.92;13.73;;;1.70;99.90;;;;;;5004207;28;20035;-36
2022/12/09 02:24:39;;;;;;;22.73;12.85;;;1.60;99.90;;;;;;5013412;28;20470;-35
2022/12/09 02:27:11;;;;;;;20.70;13.25;;;1.70;99.90;;;;;;5010239;28;20053;-36
2022/12/09 02:29:47;;;;;;;22.90;12.48;;;1.70;99.90;;;;;;5025777;28;20041;-34
2022/12/09 02:32:32;;;;;;;23.75;13.88;;;1.70;99.90;;;;;;5023230;28;20046;-34
2022/12/09 02:35:16;;;;;;;22.98;12.80;;;1.70;99.90;;;;;;5029436;28;20395;-35
2022/12/09 02:38:12;;;;;;;21.48;13.20;;;1.70;99.90;;;;;;5018508;28;20045;-34
2022/12/09 02:40:49;;;;;;;21.65;13.55;;;1.70;99.90;;;;;;4996084;28;20045;-35
2022/12/09 02:43:18;;;;;;;20.98;13.07;;;1.70;99.90;;;;;;5006905;28;20049;-34
2022/12/09 02:45:44;;;;;;;18.98;12.40;;;1.70;99.90;;;;;;5010318;28;20385;-35
2022/12/09 02:48:14;;;;;;;20.70;12.80;;;1.70;99.90;;;;;;5031610;28;20030;-34
2022/12/09 02:50:42;;;;;;;21.45;13.18;;;1.60;99.90;;;;;;5016484;28;20096;-34
2022/12/09 02:53:11;;;;;;;22.13;13.45;;;1.60;99.90;;;;;;5007881;28;20041;-34
2022/12/09 02:55:41;;;;;;;22.23;13.73;;;1.60;99.90;;;;;;5012625;28;20573;-34
2022/12/09 02:58:07;;;;;;;23.52;13.40;;;1.60;99.90;;;;;;5024742;28;20545;-34
2022/12/09 03:00:33;;;;;;;21.02;12.50;;;1.60;99.90;;;;;;5022700;28;20041;-34
2022/12/09 03:03:02;;;;;;;21.92;13.00;;;1.60;99.90;;;;;;5025230;28;20034;-33
2022/12/09 03:05:50;;;;;;;20.90;12.63;;;1.50;99.90;;;;;;5012913;28;20048;-34
2022/12/09 03:08:43;;;;;;;24.48;14.25;;;1.60;99.90;;;;;;5026251;28;20116;-34
2022/12/09 03:11:13;;;;;;;21.10;12.70;;;1.50;99.90;;;;;;5009042;28;20399;-33
2022/12/09 03:14:02;;;;;;;23.60;13.88;;;1.60;99.90;;;;;;5021726;28;20053;-33
2022/12/09 03:16:34;;;;;;;24.33;14.57;;;1.50;99.90;;;;;;5016426;28;20046;-33
2022/12/09 03:19:09;;;;;;;24.65;13.93;;;1.50;99.90;;;;;;5020881;28;20121;-33
2022/12/09 03:21:41;;;;;;;21.92;13.20;;;1.50;99.90;;;;;;5024420;28;20037;-34
2022/12/09 03:24:09;;;;;;;22.85;14.52;;;1.50;99.90;;;;;;5023981;28;20491;-33
2022/12/09 03:26:37;;;;;;;22.70;13.65;;;1.50;99.90;;;;;;5025443;28;20042;-34
2022/12/09 03:29:17;;;;;;;22.58;13.45;;;1.40;99.90;;;;;;5017839;28;20530;-33
2022/12/09 03:31:45;;;;;;;24.88;15.30;;;1.40;99.90;;;;;;5008323;28;20125;-33
2022/12/09 03:34:15;;;;;;;25.02;15.18;;;1.40;99.90;;;;;;5013165;28;20033;-34
2022/12/09 03:36:44;;;;;;;26.25;14.57;;;1.40;99.90;;;;;;5016422;28;20037;-34
2022/12/09 03:39:13;;;;;;;27.58;14.98;;;1.40;99.90;;;;;;5020220;28;20411;-34
2022/12/09 03:41:45;;;;;;;27.48;15.07;;;1.50;99.90;;;;;;5002492;28;20175;-33
2022/12/09 03:44:16;;;;;;;23.98;14.63;;;1.50;99.90;;;;;;5021111;28;20509;-33
2022/12/09 03:46:42;;;;;;;22.92;13.73;;;1.40;99.90;;;;;;5006049;28;20033;-33
2022/12/09 03:49:08;;;;;;;27.27;15.90;;;1.50;99.90;;;;;;5020130;28;20038;-33
2022/12/09 03:51:36;;;;;;;26.80;14.98;;;1.50;99.90;;;;;;5022444;28;20030;-34
2022/12/09 03:54:08;;;;;;;27.65;15.90;;;1.50;99.90;;;;;;4984869;28;20039;-34
2022/12/09 03:56:42;;;;;;;26.70;15.00;;;1.50;99.90;;;;;;5016884;28;20041;-34
2022/12/09 03:59:11;;;;;;;28.08;14.57;;;1.50;99.90;;;;;;5003193;28;20038;-34
2022/12/09 04:01:39;;;;;;;25.45;15.27;;;1.50;99.90;;;;;;4993936;28;20529;-34
2022/12/09 04:04:05;;;;;;;26.52;14.80;;;1.50;99.90;;;;;;5024624;28;20455;-34
2022/12/09 04:06:31;;;;;;;28.58;15.57;;;1.50;99.90;;;;;;5025807;28;20033;-34
2022/12/09 04:08:57;;;;;;;27.30;15.63;;;1.50;99.90;;;;;;5016161;28;20031;-34
2022/12/09 04:11:22;;;;;;;25.83;14.32;;;1.50;99.90;;;;;;5004610;28;20533;-34
2022/12/09 04:13:48;;;;;;;26.70;16.20;;;1.50;99.90;;;;;;5006293;28;20037;-34
2022/12/09 04:16:14;;;;;;;26.92;15.70;;;1.50;99.90;;;;;;5008681;28;20037;-34
2022/12/09 04:18:39;;;;;;;25.85;14.90;;;1.50;99.90;;;;;;5016683;28;20124;-34
2022/12/09 04:21:07;;;;;;;24.60;15.35;;;1.50;99.90;;;;;;4998563;28;20038;-34
2022/12/09 04:23:33;;;;;;;23.85;14.73;;;1.50;99.90;;;;;;5019820;28;20103;-34
2022/12/09 04:25:58;;;;;;;25.15;16.80;;;1.50;99.90;;;;;;5006564;28;20489;-34
2022/12/09 04:28:24;;;;;;;25.80;14.73;;;1.50;99.90;;;;;;5014642;28;20609;-34
2022/12/09 04:30:50;;;;;;;23.90;14.13;;;1.50;99.90;;;;;;5010772;28;20040;-34
2022/12/09 04:33:16;;;;;;;27.13;16.63;;;1.50;99.90;;;;;;5003561;28;20491;-33
2022/12/09 04:35:41;;;;;;;29.15;16.80;;;1.50;99.90;;;;;;5014121;28;20503;-34
2022/12/09 04:38:07;;;;;;;28.45;16.23;;;1.50;99.90;;;;;;5013899;28;20036;-34
2022/12/09 04:40:33;;;;;;;26.27;15.18;;;1.50;99.90;;;;;;4997772;28;20526;-34
2022/12/09 04:42:59;;;;;;;28.48;16.73;;;1.50;99.90;;;;;;5015630;28;20550;-34
2022/12/09 04:45:24;;;;;;;28.92;16.60;;;1.50;99.90;;;;;;5012197;28;20049;-34
2022/12/09 04:47:50;;;;;;;27.00;15.60;;;1.50;99.90;;;;;;5013936;28;20030;-34
2022/12/09 04:50:16;;;;;;;24.95;15.48;;;1.60;99.90;;;;;;5023860;28;20037;-34
2022/12/09 04:52:42;;;;;;;26.52;16.33;;;1.50;99.90;;;;;;4997852;28;20038;-34
2022/12/09 04:55:08;;;;;;;27.48;15.88;;;1.50;99.90;;;;;;5011127;28;20096;-34
2022/12/09 04:57:35;;;;;;;27.00;15.68;;;1.50;99.90;;;;;;5000426;28;20507;-34
2022/12/09 05:00:02;;;;;;;28.00;15.85;;;1.50;99.90;;;;;;4998538;28;20030;-34
2022/12/09 05:02:28;;;;;;;26.52;15.48;;;1.50;99.90;;;;;;5007673;28;20088;-34
2022/12/09 05:04:54;;;;;;;27.75;16.10;;;1.50;99.90;;;;;;5000252;28;20042;-34
2022/12/09 05:07:22;;;;;;;26.17;14.93;;;1.50;99.90;;;;;;5006649;28;20487;-34
2022/12/09 05:09:48;;;;;;;30.52;16.38;;;1.50;99.90;;;;;;5019507;28;20365;-34
2022/12/09 05:12:13;;;;;;;25.27;15.00;;;1.50;99.90;;;;;;5025030;28;20040;-33
2022/12/09 05:14:40;;;;;;;26.58;15.13;;;1.50;99.90;;;;;;5013025;28;20099;-34
2022/12/09 05:17:06;;;;;;;26.65;15.80;;;1.50;99.90;;;;;;5022880;28;20034;-34
2022/12/09 05:19:31;;;;;;;25.52;15.80;;;1.50;99.90;;;;;;5003780;28;20422;-34
2022/12/09 05:21:57;;;;;;;26.95;15.18;;;1.50;99.90;;;;;;5024364;28;20506;-33
2022/12/09 05:24:23;;;;;;;27.50;16.10;;;1.50;99.90;;;;;;5014116;28;20038;-34
2022/12/09 05:26:49;;;;;;;29.25;17.05;;;1.50;99.90;;;;;;5017124;28;20492;-34
2022/12/09 05:29:14;;;;;;;28.88;16.60;;;1.50;99.90;;;;;;5002496;28;20025;-34
2022/12/09 05:31:40;;;;;;;33.10;18.95;;;1.40;99.90;;;;;;5023074;28;20034;-34
2022/12/09 05:34:06;;;;;;;29.50;18.13;;;1.40;99.90;;;;;;5010534;28;20048;-34
2022/12/09 05:36:32;;;;;;;30.58;17.05;;;1.40;99.90;;;;;;5008775;28;20034;-33
2022/12/09 05:38:57;;;;;;;28.30;16.50;;;1.40;99.90;;;;;;5017509;28;20096;-34
2022/12/09 05:41:24;;;;;;;29.58;16.27;;;1.40;99.90;;;;;;5022737;28;20639;-34
2022/12/09 05:43:51;;;;;;;25.20;15.45;;;1.30;99.90;;;;;;5012928;28;20483;-34
2022/12/09 05:46:17;;;;;;;25.27;15.88;;;1.30;99.90;;;;;;5006584;28;20042;-34
2022/12/09 05:48:43;;;;;;;30.90;17.85;;;1.30;99.90;;;;;;5013750;28;20038;-34
2022/12/09 05:51:16;;;;;;;28.48;17.75;;;1.30;99.90;;;;;;5003923;28;20038;-34
2022/12/09 05:53:43;;;;;;;27.42;16.35;;;1.30;99.90;;;;;;5005009;28;20041;-34
2022/12/09 05:56:09;;;;;;;31.40;18.98;;;1.30;99.90;;;;;;5007114;28;20499;-34
2022/12/09 05:58:34;;;;;;;34.33;19.80;;;1.30;99.90;;;;;;5004188;28;20085;-34
2022/12/09 06:01:07;;;;;;;32.85;19.63;;;1.30;99.90;;;;;;5013653;28;20117;-34
2022/12/09 06:03:34;;;;;;;33.13;20.43;;;1.40;99.90;;;;;;5007752;28;20132;-34
2022/12/09 06:06:08;;;;;;;33.95;18.83;;;1.30;99.90;;;;;;5017629;28;20049;-34
2022/12/09 06:08:34;;;;;;;33.22;19.42;;;1.30;99.90;;;;;;4993876;28;20050;-34
2022/12/09 06:11:00;;;;;;;34.13;19.13;;;1.30;99.90;;;;;;5021767;28;20092;-33
2022/12/09 06:13:26;;;;;;;27.85;17.17;;;1.20;99.90;;;;;;5001007;28;20038;-34
2022/12/09 06:15:53;;;;;;;29.10;16.85;;;1.20;99.90;;;;;;5015830;28;20034;-34
2022/12/09 06:18:19;;;;;;;27.50;17.08;;;1.20;99.90;;;;;;5002722;28;20034;-33
2022/12/09 06:20:45;;;;;;;28.35;17.35;;;1.10;99.90;;;;;;5016000;28;20073;-34
2022/12/09 06:23:14;;;;;;;29.95;17.95;;;1.10;99.90;;;;;;5010551;28;20105;-34
2022/12/09 06:25:44;;;;;;;29.33;17.15;;;1.00;99.90;;;;;;5007834;28;20038;-34
2022/12/09 06:28:10;;;;;;;27.50;16.67;;;0.90;99.90;;;;;;5014616;28;20530;-34
2022/12/09 06:30:37;;;;;;;29.98;16.63;;;0.90;99.90;;;;;;5011485;28;20038;-34
2022/12/09 06:33:04;;;;;;;27.85;16.95;;;0.80;99.90;;;;;;5008220;28;20533;-35
2022/12/09 06:35:30;;;;;;;29.27;17.17;;;0.70;99.90;;;;;;5017860;28;20038;-34
2022/12/09 06:37:55;;;;;;;27.77;16.45;;;0.60;99.90;;;;;;5006581;28;20045;-34
2022/12/09 06:40:21;;;;;;;32.33;17.42;;;0.60;99.90;;;;;;5023299;28;20033;-34
2022/12/09 06:42:51;;;;;;;27.88;16.10;;;0.50;99.90;;;;;;5007833;28;20170;-34
2022/12/09 06:45:17;;;;;;;28.10;16.30;;;0.40;99.90;;;;;;5012463;28;20033;-34
2022/12/09 06:47:43;;;;;;;28.60;15.52;;;0.30;99.90;;;;;;5015251;28;20136;-34
2022/12/09 06:50:09;;;;;;;30.42;16.55;;;0.30;99.90;;;;;;5020029;28;20073;-35
2022/12/09 06:52:36;;;;;;;33.97;17.80;;;0.30;99.90;;;;;;5017108;28;20442;-35
2022/12/09 06:55:03;;;;;;;32.85;17.15;;;0.30;99.90;;;;;;5003994;28;20041;-34
2022/12/09 06:57:29;;;;;;;31.73;18.38;;;0.20;99.90;;;;;;4999513;28;20030;-34
2022/12/09 06:59:55;;;;;;;35.90;18.98;;;0.20;99.90;;;;;;5024298;28;20034;-34
2022/12/09 07:02:20;;;;;;;39.60;23.95;;;0.10;99.90;;;;;;5014716;28;20033;-34
2022/12/09 07:04:51;;;;;;;45.38;25.25;;;0.20;99.90;;;;;;5019440;28;20042;-34
2022/12/09 07:07:17;;;;;;;35.80;21.42;;;0.10;99.90;;;;;;5017543;28;20049;-34
2022/12/09 07:09:43;;;;;;;34.80;21.00;;;0.00;99.90;;;;;;5021045;28;20068;-34
2022/12/09 07:12:09;;;;;;;34.00;20.80;;;0.00;99.90;;;;;;5007648;28;20407;-34
2022/12/09 07:14:35;;;;;;;35.15;20.98;;;-0.10;99.90;;;;;;5006766;28;20470;-34
2022/12/09 07:17:01;;;;;;;36.47;19.88;;;-0.10;99.90;;;;;;5023685;28;20040;-34
2022/12/09 07:19:28;;;;;;;41.78;21.08;;;-0.20;99.90;;;;;;5016836;28;20038;-34
2022/12/09 07:21:54;;;;;;;34.20;18.90;;;-0.20;99.90;;;;;;5017645;28;20391;-34
2022/12/09 07:24:20;;;;;;;41.35;19.77;;;-0.30;99.90;;;;;;5008642;28;20067;-34
2022/12/09 07:26:49;;;;;;;35.28;18.48;;;-0.30;99.90;;;;;;5016823;28;20061;-34
2022/12/09 07:29:15;;;;;;;36.80;19.48;;;-0.40;99.90;;;;;;5008821;28;20080;-34
2022/12/09 07:31:43;;;;;;;35.75;18.63;;;-0.40;99.90;;;;;;5023112;28;20045;-34
2022/12/09 07:34:10;;;;;;;33.92;18.38;;;-0.40;99.90;;;;;;5025874;28;20038;-34
2022/12/09 07:36:36;;;;;;;40.53;19.02;;;-0.40;99.90;;;;;;5002256;28;20042;-34
2022/12/09 07:39:20;;;;;;;34.70;20.10;;;-0.50;99.90;;;;;;5004154;28;20034;-34
2022/12/09 07:41:53;;;;;;;;;;;-0.50;99.90;;;;;;5016457;28;20507;-34
2022/12/09 07:44:18;;;;;;;32.92;17.63;;;-0.50;99.90;;;;;;5024551;28;19983;-35
2022/12/09 07:46:45;;;;;;;34.72;18.85;;;-0.50;99.90;;;;;;5034493;28;20550;-34
2022/12/09 07:49:10;;;;;;;38.38;20.33;;;-0.50;99.90;;;;;;5002687;28;20038;-34
2022/12/09 07:51:36;;;;;;;42.88;22.75;;;-0.60;99.90;;;;;;5021301;28;20454;-34
2022/12/09 07:54:02;;;;;;;37.00;20.80;;;-0.50;99.90;;;;;;4998722;28;20560;-35
2022/12/09 07:56:28;;;;;;;35.25;19.17;;;-0.60;99.90;;;;;;5002928;28;20077;-34
2022/12/09 07:58:55;;;;;;;38.38;20.52;;;-0.60;99.90;;;;;;5009787;28;20034;-34
2022/12/09 08:01:24;;;;;;;39.08;21.75;;;-0.60;99.90;;;;;;5019390;28;20034;-34
2022/12/09 08:03:51;;;;;;;38.92;21.23;;;-0.60;99.90;;;;;;5020139;28;20034;-34
2022/12/09 08:06:19;;;;;;;39.95;19.02;;;-0.60;99.90;;;;;;5016916;28;20038;-34
2022/12/09 08:08:46;;;;;;;43.72;22.92;;;-0.70;99.90;;;;;;5004645;28;20041;-34
2022/12/09 08:11:17;;;;;;;40.05;22.35;;;-0.60;99.90;;;;;;5031471;28;20041;-34
2022/12/09 08:13:44;;;;;;;40.03;20.92;;;-0.70;99.90;;;;;;5004161;28;20187;-34
2022/12/09 08:16:12;;;;;;;43.33;23.60;;;-0.60;99.90;;;;;;5000021;28;20045;-34
2022/12/09 08:18:38;;;;;;;48.47;22.30;;;-0.60;99.90;;;;;;5016845;28;20496;-35
2022/12/09 08:21:07;;;;;;;45.20;23.08;;;-0.50;99.90;;;;;;5005855;28;20037;-34
2022/12/09 08:23:33;;;;;;;44.92;24.27;;;-0.50;99.90;;;;;;4997092;28;20108;-34
2022/12/09 08:26:00;;;;;;;38.45;20.80;;;-0.50;99.90;;;;;;5023295;28;20069;-34
2022/12/09 08:28:27;;;;;;;48.38;23.17;;;-0.50;99.90;;;;;;5010590;28;20042;-34
2022/12/09 08:30:53;;;;;;;46.63;22.88;;;-0.50;99.90;;;;;;5015229;28;20124;-35
2022/12/09 08:33:19;;;;;;;41.22;20.92;;;-0.40;99.90;;;;;;4989300;28;20113;-34
2022/12/09 08:35:44;;;;;;;56.08;27.30;;;-0.40;99.90;;;;;;5010979;28;20117;-34
2022/12/09 08:38:10;;;;;;;57.55;27.85;;;-0.40;99.90;;;;;;5019268;28;20072;-34
2022/12/09 08:40:37;;;;;;;62.83;29.42;;;-0.30;99.90;;;;;;5009850;28;20034;-34
2022/12/09 08:43:07;;;;;;;68.50;31.40;;;-0.10;99.90;;;;;;5028012;28;20037;-34
2022/12/09 08:45:38;;;;;;;81.20;34.95;;;0.00;99.90;;;;;;5010501;28;20415;-34
2022/12/09 08:48:05;;;;;;;151.18;41.13;;;0.10;99.90;;;;;;5013252;28;20375;-34
2022/12/09 08:50:30;;;;;;;145.77;44.58;;;0.30;99.90;;;;;;5007003;28;20083;-34
2022/12/09 08:52:56;;;;;;;238.80;49.60;;;0.40;99.90;;;;;;5007388;28;20100;-34
2022/12/09 08:55:22;;;;;;;448.15;68.95;;;0.50;99.90;;;;;;5012156;28;20069;-34
2022/12/09 08:57:48;;;;;;;277.05;50.10;;;0.50;99.90;;;;;;5018022;28;20031;-34
2022/12/09 09:00:14;;;;;;;277.45;51.28;;;0.60;99.90;;;;;;5009364;28;20120;-35
2022/12/09 09:02:41;;;;;;;172.90;45.47;;;0.70;99.90;;;;;;5026572;28;20041;-34
2022/12/09 09:05:07;;;;;;;330.80;58.67;;;0.70;99.90;;;;;;5025128;28;20034;-34
2022/12/09 09:07:33;;;;;;;349.38;55.83;;;0.70;99.90;;;;;;5024028;28;20179;-35
2022/12/09 09:09:59;;;;;;;189.95;47.15;;;0.80;99.90;;;;;;5020695;28;20034;-34
2022/12/09 09:12:26;;;;;;;208.25;48.95;;;0.90;99.90;;;;;;5007923;28;20029;-34
2022/12/09 09:14:53;;;;;;;261.83;52.30;;;0.90;99.90;;;;;;4999597;28;20473;-35
2022/12/09 09:17:22;;;;;;;322.60;54.13;;;0.90;99.90;;;;;;5008865;28;20689;-34
2022/12/09 09:19:48;;;;;;;230.52;48.13;;;1.00;99.90;;;;;;5020992;28;20038;-34
2022/12/09 09:22:15;;;;;;;283.88;53.20;;;1.00;99.90;;;;;;5007272;28;20121;-35
2022/12/09 09:24:40;;;;;;;400.23;65.20;;;1.00;99.90;;;;;;5017887;28;20030;-34
2022/12/09 09:27:06;;;;;;;357.13;57.88;;;1.10;99.90;;;;;;5009854;28;20394;-34
2022/12/09 09:29:32;;;;;;;259.20;47.85;;;1.10;99.90;;;;;;5008567;28;20053;-34
2022/12/09 09:31:58;;;;;;;337.45;56.35;;;1.10;99.90;;;;;;5016602;28;20036;-34
2022/12/09 09:34:26;;;;;;;343.48;51.55;;;1.10;99.90;;;;;;5007012;28;20143;-34
2022/12/09 09:36:52;;;;;;;314.10;54.33;;;1.10;99.90;;;;;;5009464;28;20487;-34
2022/12/09 09:39:18;;;;;;;164.20;38.97;;;1.20;99.90;;;;;;5016171;28;20527;-34
2022/12/09 09:41:56;;;;;;;256.02;44.97;;;1.20;99.90;;;;;;5008159;28;20140;-34
2022/12/09 09:44:34;;;;;;;152.27;37.78;;;1.10;99.90;;;;;;5002931;28;20038;-34
2022/12/09 09:47:02;;;;;;;145.68;37.63;;;1.20;99.90;;;;;;5008226;28;20117;-34
2022/12/09 09:49:36;;;;;;;150.95;38.03;;;1.20;99.90;;;;;;5024053;28;20089;-34
2022/12/09 09:52:09;;;;;;;302.88;50.13;;;1.20;99.90;;;;;;5013260;28;20391;-34
2022/12/09 09:54:35;;;;;;;202.30;43.22;;;1.20;99.90;;;;;;5002246;28;20058;-34
2022/12/09 09:57:10;;;;;;;110.82;34.60;;;1.20;99.90;;;;;;5026399;28;20080;-36
2022/12/09 09:59:48;;;;;;;346.70;56.35;;;1.30;99.90;;;;;;5025699;28;20029;-34
2022/12/09 10:02:57;;;;;;;96.35;37.08;;;1.30;99.90;;;;;;5020016;28;20034;-34
2022/12/09 10:05:23;;;;;;;111.22;37.95;;;1.30;99.90;;;;;;5007981;28;20048;-34
2022/12/09 10:08:27;;;;;;;364.48;60.83;;;1.40;99.90;;;;;;5025846;28;20042;-34
2022/12/09 10:11:22;;;;;;;198.73;42.53;;;1.40;99.90;;;;;;4990884;28;20053;-34
2022/12/09 10:13:54;;;;;;;97.38;38.33;;;1.40;99.90;;;;;;5009520;28;20033;-35
2022/12/09 10:16:46;;;;;;;220.07;44.40;;;1.40;99.90;;;;;;5004818;28;20129;-35
2022/12/09 10:19:30;;;;;;;220.10;45.63;;;1.40;99.90;;;;;;4986400;28;20130;-34
2022/12/09 10:21:56;;;;;;;;;;;1.40;99.90;;;;;;5004672;28;20045;-35
2022/12/09 10:24:30;;;;;;;193.93;47.10;;;1.40;99.90;;;;;;5009087;28;19965;-35
2022/12/09 10:27:17;;;;;;;113.30;43.17;;;1.30;99.90;;;;;;5007991;28;20084;-35
2022/12/09 10:30:00;;;;;;;200.20;51.47;;;1.40;99.90;;;;;;5003349;28;20129;-34
2022/12/09 10:32:32;;;;;;;122.72;44.65;;;1.30;99.90;;;;;;5004653;28;20096;-34
2022/12/09 10:34:59;;;;;;;182.43;51.35;;;1.30;99.90;;;;;;5004407;28;20042;-34
2022/12/09 10:37:26;;;;;;;141.77;52.80;;;1.30;99.90;;;;;;5016796;28;20076;-34
2022/12/09 10:40:24;;;;;;;150.93;54.47;;;1.40;99.90;;;;;;4985627;28;20038;-34
2022/12/09 10:45:54;;;;;;;108.30;53.72;;;1.40;99.90;;;;;;5005391;28;20404;-34
2022/12/09 10:48:36;;;;;;;123.00;46.75;;;1.50;99.90;;;;;;5015176;28;20053;-35
2022/12/09 10:51:40;;;;;;;95.32;45.30;;;1.60;99.90;;;;;;5017252;28;20100;-35
2022/12/09 10:54:08;;;;;;;107.22;39.33;;;1.60;99.90;;;;;;4999900;28;20107;-34
2022/12/09 10:56:37;;;;;;;76.47;37.25;;;1.70;99.90;;;;;;5006150;28;20054;-35
2022/12/09 10:59:09;;;;;;;92.82;39.55;;;1.70;99.90;;;;;;5023260;28;20045;-35
2022/12/09 11:01:55;;;;;;;77.45;36.42;;;1.70;99.90;;;;;;5003223;28;20054;-34
2022/12/09 11:04:25;;;;;;;76.68;35.88;;;1.80;99.90;;;;;;5010267;28;20042;-34
2022/12/09 11:06:55;;;;;;;83.57;35.13;;;1.80;99.90;;;;;;5017599;28;20031;-34
2022/12/09 11:09:26;;;;;;;89.78;34.92;;;1.90;99.90;;;;;;5014129;28;20378;-34
2022/12/09 11:11:52;;;;;;;79.80;35.38;;;1.90;99.90;;;;;;5013634;28;20088;-35
2022/12/09 11:14:28;;;;;;;66.50;34.05;;;2.00;99.90;;;;;;5004024;28;20030;-35
2022/12/09 11:17:10;;;;;;;67.68;36.13;;;2.00;99.90;;;;;;5020165;28;20073;-34
2022/12/09 11:19:37;;;;;;;75.45;38.92;;;2.00;99.90;;;;;;5000025;28;20058;-34
2022/12/09 11:22:27;;;;;;;74.85;37.75;;;2.10;99.90;;;;;;5027543;28;20104;-35
2022/12/09 11:25:04;;;;;;;67.53;34.08;;;2.10;99.90;;;;;;5003199;28;20042;-35
2022/12/09 11:27:33;;;;;;;70.05;35.97;;;2.20;99.90;;;;;;5026766;28;20112;-34
2022/12/09 11:30:27;;;;;;;67.97;34.90;;;2.30;99.90;;;;;;5011058;28;20049;-35
2022/12/09 11:33:15;;;;;;;65.70;36.35;;;2.40;99.90;;;;;;4985133;28;20046;-35
2022/12/09 11:35:43;;;;;;;66.93;34.35;;;2.50;99.90;;;;;;5018011;28;20105;-35
2022/12/09 11:38:38;;;;;;;66.30;33.92;;;2.60;99.90;;;;;;5001486;28;20096;-35
2022/12/09 11:41:10;;;;;;;63.75;34.03;;;2.60;99.90;;;;;;5022796;28;20117;-35
2022/12/09 11:43:49;;;;;;;62.47;32.40;;;2.60;99.90;;;;;;5008970;28;20038;-36
2022/12/09 11:46:23;;;;;;;64.88;33.97;;;2.70;99.90;;;;;;5014838;28;20073;-35
2022/12/09 11:48:55;;;;;;;60.20;32.10;;;2.70;99.90;;;;;;5001199;28;20049;-35
2022/12/09 11:51:27;;;;;;;66.88;35.75;;;2.80;99.90;;;;;;5011702;28;20088;-35
2022/12/09 11:54:10;;;;;;;58.95;33.80;;;2.80;99.90;;;;;;5021894;28;20498;-35
2022/12/09 11:56:37;;;;;;;65.05;34.45;;;2.90;99.90;;;;;;5008431;28;20030;-34
2022/12/09 11:59:18;;;;;;;57.35;32.15;;;2.90;99.90;;;;;;5019359;28;20495;-35
2022/12/09 12:01:47;;;;;;;59.72;33.65;;;2.90;99.90;;;;;;5018020;28;20177;-35
2022/12/09 12:04:39;;;;;;;58.70;32.65;;;3.00;99.90;;;;;;5008675;28;20068;-35
2022/12/09 12:07:23;;;;;;;55.88;31.40;;;3.00;99.90;;;;;;5017430;28;20503;-35
2022/12/09 12:09:53;;;;;;;;;;;3.20;99.90;;;;;;5024478;28;20553;-35
2022/12/09 12:12:44;;;;;;;50.03;28.50;;;3.20;99.90;;;;;;5021407;28;19917;-35
2022/12/09 12:15:19;;;;;;;48.95;26.90;;;3.20;99.90;;;;;;5002472;28;20551;-35
2022/12/09 12:17:55;;;;;;;51.78;29.27;;;3.20;99.90;;;;;;5001171;28;20117;-35
2022/12/09 12:20:34;;;;;;;49.95;28.55;;;3.20;99.90;;;;;;5022803;28;20040;-35
2022/12/09 12:23:20;;;;;;;49.50;28.98;;;3.30;99.90;;;;;;5020716;28;20073;-35
2022/12/09 12:26:20;;;;;;;43.17;25.13;;;3.20;99.90;;;;;;5007376;28;20038;-35
2022/12/09 12:28:54;;;;;;;45.28;25.20;;;3.10;99.90;;;;;;4935871;28;20455;-35
2022/12/09 12:31:27;;;;;;;39.03;22.48;;;3.10;99.90;;;;;;5004828;28;20029;-34
2022/12/09 12:33:53;;;;;;;44.63;26.73;;;3.00;99.90;;;;;;5020442;28;20546;-35
2022/12/09 12:36:35;;;;;;;48.63;27.13;;;3.00;99.90;;;;;;5013492;28;20042;-35
2022/12/09 12:39:26;;;;;;;41.35;23.23;;;3.00;99.90;;;;;;5008691;28;20037;-44
2022/12/09 12:42:24;;;;;;;39.58;21.13;;;3.10;99.90;;;;;;5015859;28;20058;-35
2022/12/09 12:48:03;;;;;;;36.35;20.23;;;3.10;99.90;;;;;;5013891;28;20553;-35
2022/12/09 12:50:34;;;;;;;34.47;19.20;;;3.00;99.90;;;;;;5005732;28;20037;-35
2022/12/09 12:53:00;;;;;;;34.58;20.20;;;3.00;99.90;;;;;;5006400;28;20070;-35
2022/12/09 12:55:48;;;;;;;33.60;18.58;;;3.00;99.90;;;;;;5008940;28;20100;-35
2022/12/09 12:58:22;;;;;;;39.35;20.27;;;2.90;99.90;;;;;;5010198;28;20040;-35